createdAt,value
2023-04-12T00:00:06.626Z,15.00
2023-04-12T00:02:55.087Z,15.00
2023-04-12T00:05:27.576Z,15.25
2023-04-12T00:07:56.043Z,15.00
2023-04-12T00:10:24.640Z,15.50
2023-04-12T00:12:53.051Z,16.50
2023-04-12T00:15:21.605Z,15.25
2023-04-12T00:17:50.129Z,15.50
2023-04-12T00:20:18.964Z,15.25
2023-04-12T00:22:47.359Z,16.00
2023-04-12T00:25:16.573Z,15.00
2023-04-12T00:27:45.043Z,16.50
2023-04-12T00:30:13.706Z,16.75
2023-04-12T00:32:44.277Z,15.00
2023-04-12T00:35:12.971Z,16.50
2023-04-12T00:37:41.373Z,16.75
2023-04-12T00:40:11.327Z,17.25
2023-04-12T00:42:39.701Z,16.50
2023-04-12T00:45:09.501Z,15.25
2023-04-12T00:47:38.805Z,16.50
2023-04-12T00:50:08.706Z,15.25
2023-04-12T00:52:37.963Z,15.67
2023-04-12T00:55:08.456Z,15.00
2023-04-12T00:57:39.495Z,15.67
2023-04-12T01:00:13.225Z,16.50
2023-04-12T01:02:47.793Z,17.50
2023-04-12T01:05:22.619Z,16.25
2023-04-12T01:08:21.284Z,16.75
2023-04-12T01:11:14.371Z,16.75
2023-04-12T01:14:10.208Z,16.67
2023-04-12T01:16:44.782Z,15.50
2023-04-12T01:19:30.470Z,16.75
2023-04-12T01:22:32.993Z,15.25
2023-04-12T01:25:13.409Z,17.00
2023-04-12T01:27:57.285Z,15.00
2023-04-12T01:30:27.871Z,15.50
2023-04-12T01:32:57.860Z,15.00
2023-04-12T01:35:32.831Z,16.50
2023-04-12T01:38:04.777Z,15.25
2023-04-12T01:40:34.173Z,14.50
2023-04-12T01:43:11.144Z,15.50
2023-04-12T01:45:40.965Z,16.50
2023-04-12T01:48:11.129Z,15.50
2023-04-12T01:51:06.679Z,17.25
2023-04-12T01:53:50.234Z,15.50
2023-04-12T01:56:19.579Z,17.00
2023-04-12T01:58:49.326Z,16.67
2023-04-12T02:01:19.435Z,15.33
2023-04-12T02:03:50.246Z,17.00
2023-04-12T02:06:21.019Z,16.50
2023-04-12T02:08:49.597Z,15.75
2023-04-12T02:11:18.240Z,16.00
2023-04-12T02:13:46.918Z,15.25
2023-04-12T02:16:15.276Z,15.25
2023-04-12T02:18:43.973Z,15.33
2023-04-12T02:21:16.705Z,15.00
2023-04-12T02:23:45.354Z,15.33
2023-04-12T02:26:13.628Z,15.33
2023-04-12T02:28:42.357Z,15.50
2023-04-12T02:31:13.700Z,17.25
2023-04-12T02:33:42.954Z,15.00
2023-04-12T02:36:12.453Z,15.67
2023-04-12T02:38:42.083Z,15.00
2023-04-12T02:41:10.918Z,16.33
2023-04-12T02:43:39.503Z,15.25
2023-04-12T02:46:10.719Z,16.00
2023-04-12T02:48:46.323Z,15.25
2023-04-12T02:51:15.009Z,16.50
2023-04-12T02:53:45.555Z,16.50
2023-04-12T02:56:22.019Z,17.00
2023-04-12T02:58:57.113Z,16.75
2023-04-12T03:01:57.468Z,16.00
2023-04-12T03:04:30.910Z,16.25
2023-04-12T03:07:01.799Z,16.75
2023-04-12T03:09:46.325Z,17.00
2023-04-12T03:12:16.819Z,16.50
2023-04-12T03:14:58.813Z,16.75
2023-04-12T03:17:28.062Z,15.00
2023-04-12T03:20:10.365Z,16.75
2023-04-12T03:22:42.877Z,16.50
2023-04-12T03:25:12.948Z,16.25
2023-04-12T03:27:47.262Z,15.50
2023-04-12T03:30:19.310Z,16.50
2023-04-12T03:32:48.348Z,16.00
2023-04-12T03:35:17.704Z,17.75
2023-04-12T03:37:46.300Z,16.50
2023-04-12T03:40:15.040Z,17.50
2023-04-12T03:42:50.449Z,19.00
2023-04-12T03:45:19.222Z,17.67
2023-04-12T03:47:52.586Z,18.00
2023-04-12T03:50:22.644Z,17.00
2023-04-12T03:52:56.964Z,19.25
2023-04-12T03:55:31.542Z,19.25
2023-04-12T03:58:02.182Z,19.25
2023-04-12T04:00:36.800Z,17.50
2023-04-12T04:03:09.648Z,16.50
2023-04-12T04:05:59.233Z,18.25
2023-04-12T04:08:29.150Z,18.00
2023-04-12T04:10:58.400Z,17.50
2023-04-12T04:13:32.239Z,18.00
2023-04-12T04:16:07.216Z,19.00
2023-04-12T04:18:36.411Z,17.25
2023-04-12T04:21:07.720Z,19.25
2023-04-12T04:23:39.273Z,18.50
2023-04-12T04:26:12.059Z,19.00
2023-04-12T04:28:50.466Z,18.00
2023-04-12T04:31:26.639Z,18.33
2023-04-12T04:33:54.992Z,18.00
2023-04-12T04:36:33.851Z,18.50
2023-04-12T04:39:02.516Z,18.67
2023-04-12T04:41:39.791Z,17.67
2023-04-12T04:44:11.611Z,18.00
2023-04-12T04:46:49.255Z,18.00
2023-04-12T04:49:17.674Z,16.25
2023-04-12T04:51:47.212Z,17.67
2023-04-12T04:54:16.889Z,18.00
2023-04-12T04:56:46.034Z,16.33
2023-04-12T04:59:18.098Z,18.00
2023-04-12T05:01:46.965Z,17.25
2023-04-12T05:04:18.311Z,18.50
2023-04-12T05:06:46.933Z,18.00
2023-04-12T05:09:18.657Z,18.00
2023-04-12T05:11:55.180Z,19.75
2023-04-12T05:14:23.466Z,19.00
2023-04-12T05:16:52.395Z,18.00
2023-04-12T05:19:21.129Z,18.00
2023-04-12T05:21:49.929Z,17.25
2023-04-12T05:24:18.369Z,17.00
2023-04-12T05:26:48.188Z,16.50
2023-04-12T05:29:16.866Z,18.00
2023-04-12T05:31:46.494Z,18.25
2023-04-12T05:34:20.493Z,18.00
2023-04-12T05:36:54.773Z,18.00
2023-04-12T05:39:23.843Z,17.75
2023-04-12T05:41:54.356Z,16.75
2023-04-12T05:44:22.650Z,17.50
2023-04-12T05:46:51.237Z,18.50
2023-04-12T05:49:19.811Z,17.00
2023-04-12T05:51:48.825Z,16.25
2023-04-12T05:54:22.687Z,18.00
2023-04-12T05:56:57.492Z,18.00
2023-04-12T05:59:26.556Z,16.00
2023-04-12T06:01:55.432Z,16.25
2023-04-12T06:04:27.948Z,18.25
2023-04-12T06:07:01.985Z,17.75
2023-04-12T06:09:30.168Z,19.00
2023-04-12T06:11:59.048Z,18.25
2023-04-12T06:14:27.335Z,18.75
2023-04-12T06:16:56.275Z,16.50
2023-04-12T06:19:24.572Z,17.50
2023-04-12T06:21:53.321Z,17.75
2023-04-12T06:24:22.126Z,19.00
2023-04-12T06:26:50.876Z,19.00
2023-04-12T06:29:19.096Z,18.50
2023-04-12T06:31:48.729Z,18.00
2023-04-12T06:34:17.697Z,18.25
2023-04-12T06:36:48.013Z,19.50
2023-04-12T06:39:17.114Z,17.75
2023-04-12T06:41:47.753Z,17.25
2023-04-12T06:44:20.820Z,17.67
2023-04-12T06:46:49.492Z,18.00
2023-04-12T06:49:17.726Z,17.67
2023-04-12T06:51:46.557Z,18.25
2023-04-12T06:54:14.744Z,18.00
2023-04-12T06:56:43.334Z,19.25
2023-04-12T06:59:11.595Z,19.25
2023-04-12T07:01:41.329Z,19.50
2023-04-12T07:04:10.244Z,18.25
2023-04-12T07:06:39.117Z,18.75
2023-04-12T07:09:07.308Z,17.50
2023-04-12T07:11:36.260Z,17.25
2023-04-12T07:14:04.520Z,19.33
2023-04-12T07:16:33.133Z,18.00
2023-04-12T07:19:01.492Z,18.75
2023-04-12T07:21:30.098Z,18.00
2023-04-12T07:23:58.284Z,16.25
2023-04-12T07:26:27.322Z,18.25
2023-04-12T07:28:55.689Z,18.00
2023-04-12T07:31:24.692Z,18.00
2023-04-12T07:33:53.340Z,17.00
2023-04-12T07:36:22.464Z,17.75
2023-04-12T07:38:55.837Z,17.75
2023-04-12T07:41:25.350Z,17.25
2023-04-12T07:43:53.756Z,16.75
2023-04-12T07:46:22.592Z,17.50
2023-04-12T07:48:52.012Z,17.00
2023-04-12T07:51:20.784Z,17.75
2023-04-12T07:53:49.282Z,19.00
2023-04-12T07:56:18.044Z,17.50
2023-04-12T07:58:46.437Z,18.00
2023-04-12T08:01:16.364Z,17.75
2023-04-12T08:03:44.884Z,19.25
2023-04-12T08:06:14.033Z,18.00
2023-04-12T08:08:42.378Z,18.00
2023-04-12T08:11:11.988Z,16.50
2023-04-12T08:13:40.465Z,16.75
2023-04-12T08:16:09.431Z,18.00
2023-04-12T08:18:37.805Z,18.00
2023-04-12T08:21:06.576Z,17.50
2023-04-12T08:23:35.043Z,17.25
2023-04-12T08:26:03.962Z,18.33
2023-04-12T08:28:32.974Z,18.25
2023-04-12T08:31:01.890Z,18.50
2023-04-12T08:33:30.231Z,17.75
2023-04-12T08:35:59.085Z,16.50
2023-04-12T08:38:41.403Z,17.50
2023-04-12T08:41:14.980Z,16.25
2023-04-12T08:43:49.100Z,18.00
2023-04-12T08:46:18.688Z,17.00
2023-04-12T08:48:48.961Z,16.75
2023-04-12T08:51:19.633Z,18.00
2023-04-12T08:53:48.516Z,18.00
2023-04-12T08:56:17.338Z,16.33
2023-04-12T08:58:49.398Z,17.25
2023-04-12T09:01:20.663Z,17.67
2023-04-12T09:03:49.473Z,17.00
2023-04-12T09:06:18.650Z,17.00
2023-04-12T09:08:54.815Z,20.50
2023-04-12T09:11:28.695Z,17.50
2023-04-12T09:13:58.493Z,18.00
2023-04-12T09:16:35.800Z,17.00
2023-04-12T09:19:04.878Z,17.33
2023-04-12T09:21:35.033Z,16.50
2023-04-12T09:24:14.203Z,18.25
2023-04-12T09:26:43.831Z,17.00
2023-04-12T09:29:27.969Z,18.00
2023-04-12T09:32:09.226Z,16.25
2023-04-12T09:34:37.854Z,17.75
2023-04-12T09:37:17.142Z,17.75
2023-04-12T09:39:45.849Z,17.00
2023-04-12T09:42:29.701Z,15.50
2023-04-12T09:45:03.191Z,17.33
2023-04-12T09:47:40.227Z,17.00
2023-04-12T09:50:10.167Z,16.75
2023-04-12T09:52:40.610Z,16.50
2023-04-12T09:55:11.965Z,17.00
2023-04-12T09:57:45.325Z,16.33
2023-04-12T10:00:18.156Z,16.50
2023-04-12T10:02:57.331Z,15.50
2023-04-12T10:05:27.369Z,17.00
2023-04-12T10:08:00.466Z,16.75
2023-04-12T10:10:32.078Z,16.00
2023-04-12T10:13:01.512Z,17.00
2023-04-12T10:15:30.721Z,15.25
2023-04-12T10:18:04.898Z,15.00
2023-04-12T10:20:33.578Z,16.75
2023-04-12T10:23:06.724Z,16.75
2023-04-12T10:25:35.506Z,15.33
2023-04-12T10:28:15.912Z,16.00
2023-04-12T10:30:44.812Z,16.75
2023-04-12T10:33:15.065Z,17.00
2023-04-12T10:35:57.328Z,15.00
2023-04-12T10:38:33.022Z,17.00
2023-04-12T10:41:13.916Z,17.00
2023-04-12T10:43:44.697Z,15.00
2023-04-12T10:46:38.167Z,15.25
2023-04-12T10:49:11.351Z,16.50
2023-04-12T10:51:40.859Z,15.25
2023-04-12T10:54:12.539Z,16.75
2023-04-12T10:56:43.043Z,15.00
2023-04-12T10:59:17.251Z,16.25
2023-04-12T11:02:14.608Z,16.00
2023-04-12T11:05:09.523Z,17.33
2023-04-12T11:08:00.762Z,16.50
2023-04-12T11:10:46.777Z,16.50
2023-04-12T11:13:36.297Z,15.67
2023-04-12T11:16:06.938Z,17.25
2023-04-12T11:18:36.095Z,15.25
2023-04-12T11:21:06.149Z,16.00
2023-04-12T11:23:36.561Z,17.00
2023-04-12T11:26:05.464Z,17.33
2023-04-12T11:28:35.391Z,17.00
2023-04-12T11:31:06.735Z,16.25
2023-04-12T11:33:39.917Z,16.25
2023-04-12T11:36:12.443Z,16.00
2023-04-12T11:38:41.440Z,16.50
2023-04-12T11:41:10.445Z,17.25
2023-04-12T11:43:39.128Z,17.00
2023-04-12T11:46:08.189Z,17.50
2023-04-12T11:48:39.027Z,16.50
2023-04-12T11:51:21.679Z,16.67
2023-04-12T11:53:53.677Z,18.00
2023-04-12T11:56:23.023Z,16.75
2023-04-12T11:58:51.579Z,17.50
2023-04-12T12:01:21.551Z,17.75
2023-04-12T12:03:50.904Z,19.00
2023-04-12T12:06:19.948Z,18.00
2023-04-12T12:08:52.121Z,19.50
2023-04-12T12:11:24.166Z,17.50
2023-04-12T12:13:55.721Z,18.00
2023-04-12T12:16:30.157Z,17.50
2023-04-12T12:18:58.607Z,17.50
2023-04-12T12:21:27.917Z,17.50
2023-04-12T12:23:57.485Z,19.25
2023-04-12T12:26:28.519Z,17.75
2023-04-12T12:29:00.632Z,17.33
2023-04-12T12:31:30.006Z,18.00
2023-04-12T12:34:01.211Z,18.00
2023-04-12T12:36:34.165Z,16.25
2023-04-12T12:39:11.912Z,19.00
2023-04-12T12:41:41.458Z,17.75
2023-04-12T12:44:11.484Z,18.00
2023-04-12T12:49:11.652Z,18.00
2023-04-12T12:51:42.357Z,20.00
2023-04-12T12:54:10.875Z,19.25
2023-04-12T12:56:39.685Z,19.50
2023-04-12T12:59:07.888Z,21.25
2023-04-12T13:01:36.535Z,19.50
2023-04-12T13:04:05.020Z,20.75
2023-04-12T13:06:33.893Z,20.50
2023-04-12T13:09:02.151Z,21.00
2023-04-12T13:11:31.135Z,20.25
2023-04-12T13:13:59.389Z,24.00
2023-04-12T13:16:28.015Z,22.00
2023-04-12T13:18:56.562Z,23.25
2023-04-12T13:21:27.566Z,22.00
2023-04-12T13:23:55.931Z,22.75
2023-04-12T13:26:26.093Z,22.25
2023-04-12T13:28:54.467Z,23.25
2023-04-12T13:31:23.148Z,24.25
2023-04-12T13:33:51.481Z,24.75
2023-04-12T13:36:20.285Z,23.75
2023-04-12T13:38:48.532Z,23.50
2023-04-12T13:41:17.492Z,23.75
2023-04-12T13:43:45.810Z,23.25
2023-04-12T13:46:14.512Z,24.75
2023-04-12T13:48:43.054Z,24.50
2023-04-12T13:51:11.754Z,24.67
2023-04-12T13:53:39.981Z,24.50
2023-04-12T13:56:08.760Z,24.50
2023-04-12T13:58:39.868Z,23.00
2023-04-12T14:01:09.487Z,23.00
2023-04-12T14:03:38.020Z,24.00
2023-04-12T14:06:07.569Z,23.00
2023-04-12T14:08:36.312Z,22.75
2023-04-12T14:11:05.650Z,23.50
2023-04-12T14:13:34.066Z,22.75
2023-04-12T14:16:02.562Z,21.75
2023-04-12T14:18:30.975Z,22.75
2023-04-12T14:20:59.708Z,22.00
2023-04-12T14:23:27.956Z,22.00
2023-04-12T14:25:56.651Z,24.00
2023-04-12T14:28:30.964Z,23.00
2023-04-12T14:31:03.618Z,22.00
2023-04-12T14:33:33.351Z,23.00
2023-04-12T14:36:05.235Z,23.00
2023-04-12T14:38:33.824Z,21.50
2023-04-12T14:41:07.372Z,20.75
2023-04-12T14:43:36.319Z,20.50
2023-04-12T14:46:05.229Z,22.25
2023-04-12T14:48:33.563Z,21.00
2023-04-12T14:51:02.886Z,23.00
2023-04-12T14:53:31.535Z,24.50
2023-04-12T14:56:03.378Z,21.50
2023-04-12T14:58:34.836Z,23.25
2023-04-12T15:01:03.413Z,23.75
2023-04-12T15:03:33.674Z,20.00
2023-04-12T15:06:02.376Z,22.75
2023-04-12T15:08:30.623Z,21.00
2023-04-12T15:10:59.193Z,24.50
2023-04-12T15:13:32.984Z,22.25
2023-04-12T15:16:02.957Z,22.00
2023-04-12T15:18:31.389Z,20.25
2023-04-12T15:21:00.514Z,21.50
2023-04-12T15:23:28.916Z,21.00
2023-04-12T15:26:03.551Z,19.75
2023-04-12T15:28:33.411Z,21.75
2023-04-12T15:31:02.600Z,20.33
2023-04-12T15:33:34.805Z,21.50
2023-04-12T15:36:04.614Z,20.75
2023-04-12T15:38:41.234Z,21.50
2023-04-12T15:41:10.839Z,21.67
2023-04-12T15:43:39.351Z,22.00
2023-04-12T15:46:08.238Z,20.25
2023-04-12T15:48:39.063Z,22.25
2023-04-12T15:51:07.906Z,22.00
2023-04-12T15:53:36.373Z,20.50
2023-04-12T15:56:05.567Z,22.00
2023-04-12T15:58:34.075Z,20.75
2023-04-12T16:01:02.854Z,18.00
2023-04-12T16:03:34.113Z,21.67
2023-04-12T16:06:04.160Z,21.00
2023-04-12T16:08:32.632Z,19.50
2023-04-12T16:11:04.281Z,20.50
2023-04-12T16:13:32.752Z,19.50
2023-04-12T16:16:01.874Z,21.67
2023-04-12T16:18:31.656Z,21.00
2023-04-12T16:21:00.492Z,20.67
2023-04-12T16:23:29.912Z,20.75
2023-04-12T16:26:00.326Z,19.25
2023-04-12T16:28:28.973Z,21.33
2023-04-12T16:30:58.457Z,19.50
2023-04-12T16:33:27.627Z,19.25
2023-04-12T16:35:56.950Z,20.75
2023-04-12T16:38:25.745Z,19.00
2023-04-12T16:40:54.645Z,18.00
2023-04-12T16:43:22.985Z,20.67
2023-04-12T16:45:51.807Z,19.00
2023-04-12T16:48:22.949Z,19.25
2023-04-12T16:50:51.736Z,19.00
2023-04-12T16:53:20.194Z,19.50
2023-04-12T16:55:49.354Z,19.00
2023-04-12T16:58:18.508Z,20.00
2023-04-12T17:00:47.884Z,18.33
2023-04-12T17:03:21.398Z,20.25
2023-04-12T17:05:51.003Z,19.25
2023-04-12T17:08:19.492Z,18.75
2023-04-12T17:10:48.418Z,19.25
2023-04-12T17:13:19.460Z,16.67
2023-04-12T17:15:48.870Z,19.25
2023-04-12T17:18:18.081Z,20.50
2023-04-12T17:20:47.567Z,19.25
2023-04-12T17:23:16.385Z,19.50
2023-04-12T17:25:47.836Z,20.75
2023-04-12T17:28:16.327Z,19.00
2023-04-12T17:30:46.372Z,21.00
2023-04-12T17:33:18.580Z,19.50
2023-04-12T17:35:48.022Z,19.00
2023-04-12T17:38:16.731Z,19.25
2023-04-12T17:40:45.721Z,17.75
2023-04-12T17:43:14.463Z,20.75
2023-04-12T17:45:44.184Z,20.00
2023-04-12T17:48:15.352Z,21.33
2023-04-12T17:50:45.633Z,20.25
2023-04-12T17:53:14.371Z,22.00
2023-04-12T17:55:43.490Z,20.75
2023-04-12T17:58:12.047Z,19.25
2023-04-12T18:00:40.937Z,21.00
2023-04-12T18:03:12.422Z,22.25
2023-04-12T18:05:43.237Z,19.33
2023-04-12T18:08:11.704Z,22.00
2023-04-12T18:10:40.811Z,21.50
2023-04-12T18:13:09.959Z,30.75
2023-04-12T18:15:39.054Z,30.50
2023-04-12T18:18:08.227Z,31.00
2023-04-12T18:20:37.297Z,31.00
2023-04-12T18:23:05.879Z,29.25
2023-04-12T18:25:35.615Z,37.00
2023-04-12T18:28:04.739Z,41.50
2023-04-12T18:30:33.761Z,42.00
2023-04-12T18:33:04.251Z,39.50
2023-04-12T18:35:33.283Z,41.00
2023-04-12T18:38:01.691Z,44.00
2023-04-12T18:40:30.657Z,41.50
2023-04-12T18:42:59.837Z,42.50
2023-04-12T18:45:29.478Z,40.33
2023-04-12T18:48:00.556Z,39.50
2023-04-12T18:50:31.478Z,40.00
2023-04-12T18:53:01.840Z,42.25
2023-04-12T18:55:32.559Z,40.00
2023-04-12T18:58:03.080Z,41.50
2023-04-12T19:00:34.775Z,41.00
2023-04-12T19:03:05.602Z,40.75
2023-04-12T19:05:37.908Z,37.75
2023-04-12T19:08:11.977Z,41.50
2023-04-12T19:10:51.861Z,37.75
2023-04-12T19:13:22.758Z,39.50
2023-04-12T19:16:00.838Z,42.33
2023-04-12T19:18:34.131Z,39.75
2023-04-12T19:21:09.971Z,37.00
2023-04-12T19:23:41.897Z,35.33
2023-04-12T19:26:21.460Z,40.33
2023-04-12T19:28:57.149Z,39.75
2023-04-12T19:31:29.513Z,37.50
2023-04-12T19:34:01.016Z,41.25
2023-04-12T19:36:36.903Z,40.25
2023-04-12T19:39:06.784Z,37.25
2023-04-12T19:41:38.015Z,37.75
2023-04-12T19:44:10.085Z,37.67
2023-04-12T19:46:40.917Z,38.00
2023-04-12T19:49:13.660Z,37.00
2023-04-12T19:51:48.151Z,36.50
2023-04-12T19:54:30.426Z,37.75
2023-04-12T19:57:02.825Z,36.25
2023-04-12T19:59:35.807Z,33.75
2023-04-12T20:02:06.078Z,33.50
2023-04-12T20:04:37.428Z,34.33
2023-04-12T20:07:07.765Z,37.33
2023-04-12T20:09:38.940Z,36.25
2023-04-12T20:12:10.019Z,33.67
2023-04-12T20:14:43.134Z,33.67
2023-04-12T20:17:17.450Z,32.00
2023-04-12T20:19:47.906Z,32.67
2023-04-12T20:22:22.457Z,33.00
2023-04-12T20:25:00.154Z,32.50
2023-04-12T20:27:32.365Z,34.00
2023-04-12T20:30:06.557Z,31.50
2023-04-12T20:32:36.674Z,32.00
2023-04-12T20:35:07.738Z,34.33
2023-04-12T20:37:39.881Z,29.00
2023-04-12T20:40:10.786Z,33.00
2023-04-12T20:42:40.518Z,31.67
2023-04-12T20:45:10.937Z,29.33
2023-04-12T20:47:40.770Z,29.75
2023-04-12T20:50:10.972Z,33.67
2023-04-12T20:52:40.849Z,28.25
2023-04-12T20:55:11.892Z,27.75
2023-04-12T20:57:41.718Z,30.50
2023-04-12T21:00:17.687Z,29.00
2023-04-12T21:02:46.858Z,28.25
2023-04-12T21:05:17.181Z,28.67
2023-04-12T21:07:47.167Z,30.33
2023-04-12T21:10:15.432Z,29.00
2023-04-12T21:12:45.001Z,28.50
2023-04-12T21:15:13.769Z,27.50
2023-04-12T21:17:43.002Z,26.75
2023-04-12T21:20:14.242Z,29.50
2023-04-12T21:22:44.160Z,23.75
2023-04-12T21:25:16.250Z,27.75
2023-04-12T21:27:47.873Z,27.00
2023-04-12T21:30:16.344Z,26.25
2023-04-12T21:32:45.267Z,26.00
2023-04-12T21:35:16.526Z,26.25
2023-04-12T21:37:44.883Z,26.25
2023-04-12T21:40:13.883Z,23.50
2023-04-12T21:42:44.540Z,25.33
2023-04-12T21:45:15.688Z,24.50
2023-04-12T21:47:44.307Z,24.75
2023-04-12T21:50:12.740Z,25.00
2023-04-12T21:52:42.363Z,22.75
2023-04-12T21:55:10.503Z,25.00
2023-04-12T21:57:38.855Z,22.67
2023-04-12T22:00:10.146Z,22.75
2023-04-12T22:02:41.857Z,23.33
2023-04-12T22:05:10.364Z,23.00
2023-04-12T22:07:41.819Z,25.25
2023-04-12T22:10:12.147Z,25.00
2023-04-12T22:12:40.952Z,24.75
2023-04-12T22:15:11.829Z,23.25
2023-04-12T22:17:41.259Z,23.25
2023-04-12T22:20:10.597Z,22.67
2023-04-12T22:22:40.168Z,24.33
2023-04-12T22:25:12.011Z,23.50
2023-04-12T22:27:40.719Z,24.25
2023-04-12T22:30:12.104Z,21.50
2023-04-12T22:32:41.045Z,24.50
2023-04-12T22:35:10.357Z,23.00
2023-04-12T22:37:41.496Z,22.75
2023-04-12T22:40:13.879Z,24.00
2023-04-12T22:42:47.577Z,23.33
2023-04-12T22:45:17.277Z,23.00
2023-04-12T22:47:45.895Z,24.25
2023-04-12T22:50:13.979Z,22.75
2023-04-12T22:52:42.880Z,23.50
2023-04-12T22:55:22.047Z,21.75
2023-04-12T22:57:50.372Z,24.25
2023-04-12T23:00:18.518Z,23.50
2023-04-12T23:02:47.939Z,24.00
2023-04-12T23:05:16.588Z,20.50
2023-04-12T23:07:45.034Z,22.50
2023-04-12T23:10:13.245Z,24.00
2023-04-12T23:12:41.785Z,24.50
2023-04-12T23:15:10.417Z,24.33
2023-04-12T23:17:38.788Z,23.00
2023-04-12T23:20:13.873Z,23.75
2023-04-12T23:22:57.811Z,21.33
2023-04-12T23:25:41.412Z,23.25
2023-04-12T23:28:14.349Z,22.75
2023-04-12T23:30:45.098Z,24.00
2023-04-12T23:33:13.663Z,21.50
2023-04-12T23:35:41.811Z,23.00
2023-04-12T23:38:10.895Z,23.00
2023-04-12T23:40:38.971Z,24.67
2023-04-12T23:43:11.110Z,20.50
2023-04-12T23:45:39.128Z,22.00
2023-04-12T23:48:07.792Z,23.00
2023-04-12T23:50:35.906Z,22.00
2023-04-12T23:53:05.149Z,24.50
2023-04-12T23:55:33.206Z,22.50
2023-04-12T23:58:01.882Z,23.00
